createdAt,value
2023-05-19T00:00:18.819Z,3.80
2023-05-19T00:02:47.946Z,3.50
2023-05-19T00:05:19.005Z,4.15
2023-05-19T00:07:49.663Z,3.58
2023-05-19T00:10:19.712Z,3.40
2023-05-19T00:12:52.470Z,3.95
2023-05-19T00:15:22.893Z,3.50
2023-05-19T00:17:52.509Z,3.20
2023-05-19T00:20:21.005Z,4.07
2023-05-19T00:22:51.604Z,4.40
2023-05-19T00:25:20.258Z,3.40
2023-05-19T00:27:51.747Z,3.80
2023-05-19T00:30:22.840Z,3.53
2023-05-19T00:32:52.879Z,3.53
2023-05-19T00:35:21.746Z,3.70
2023-05-19T00:37:51.320Z,3.63
2023-05-19T00:40:20.070Z,3.30
2023-05-19T00:42:50.258Z,3.83
2023-05-19T00:45:19.589Z,3.55
2023-05-19T00:47:49.652Z,3.80
2023-05-19T00:50:19.144Z,3.72
2023-05-19T00:52:48.219Z,4.03
2023-05-19T00:55:17.444Z,3.95
2023-05-19T00:57:46.541Z,4.07
2023-05-19T01:00:17.712Z,4.32
2023-05-19T01:02:46.286Z,4.32
2023-05-19T01:05:15.740Z,3.85
2023-05-19T01:07:44.566Z,3.42
2023-05-19T01:10:12.980Z,4.20
2023-05-19T01:12:42.774Z,3.63
2023-05-19T01:15:12.521Z,3.38
2023-05-19T01:17:50.931Z,3.60
2023-05-19T01:20:25.924Z,3.80
2023-05-19T01:23:15.502Z,4.07
2023-05-19T01:26:05.609Z,3.97
2023-05-19T01:29:08.959Z,4.10
2023-05-19T01:31:42.491Z,4.00
2023-05-19T01:34:14.101Z,3.92
2023-05-19T01:36:45.337Z,4.15
2023-05-19T01:39:15.210Z,4.00
2023-05-19T01:41:46.572Z,4.20
2023-05-19T01:44:16.041Z,3.80
2023-05-19T01:46:48.559Z,4.53
2023-05-19T01:49:17.533Z,3.88
2023-05-19T01:51:46.573Z,3.92
2023-05-19T01:54:16.001Z,4.13
2023-05-19T01:56:53.685Z,3.78
2023-05-19T01:59:35.451Z,4.20
2023-05-19T02:02:15.983Z,4.00
2023-05-19T02:04:50.887Z,4.53
2023-05-19T02:07:31.968Z,4.07
2023-05-19T02:10:08.474Z,4.68
2023-05-19T02:12:40.124Z,3.88
2023-05-19T02:15:13.380Z,4.40
2023-05-19T02:17:47.773Z,3.67
2023-05-19T02:20:17.449Z,3.92
2023-05-19T02:22:46.309Z,3.95
2023-05-19T02:25:15.569Z,4.07
2023-05-19T02:27:43.960Z,4.22
2023-05-19T02:30:13.557Z,3.70
2023-05-19T02:32:47.261Z,3.55
2023-05-19T02:35:16.319Z,4.40
2023-05-19T02:37:44.706Z,3.78
2023-05-19T02:40:14.780Z,4.20
2023-05-19T02:42:47.175Z,4.28
2023-05-19T02:45:16.334Z,4.22
2023-05-19T02:47:46.333Z,4.40
2023-05-19T02:50:16.200Z,4.53
2023-05-19T02:52:44.683Z,5.00
2023-05-19T02:55:17.503Z,4.43
2023-05-19T02:57:46.041Z,4.57
2023-05-19T03:00:16.382Z,4.47
2023-05-19T03:02:47.398Z,4.22
2023-05-19T03:05:15.867Z,5.13
2023-05-19T03:07:45.104Z,5.40
2023-05-19T03:10:13.480Z,4.90
2023-05-19T03:12:42.267Z,5.82
2023-05-19T03:15:13.137Z,5.40
2023-05-19T03:17:42.403Z,5.63
2023-05-19T03:20:13.162Z,5.15
2023-05-19T03:22:43.121Z,5.07
2023-05-19T03:25:11.760Z,5.82
2023-05-19T03:27:40.670Z,5.93
2023-05-19T03:30:11.923Z,5.18
2023-05-19T03:32:54.103Z,5.35
2023-05-19T03:35:24.390Z,5.32
2023-05-19T03:37:53.415Z,5.45
2023-05-19T03:40:23.843Z,5.07
2023-05-19T03:42:55.215Z,5.22
2023-05-19T03:45:24.605Z,6.00
2023-05-19T03:47:54.244Z,5.57
2023-05-19T03:50:45.943Z,5.15
2023-05-19T03:53:19.225Z,5.30
2023-05-19T03:55:50.036Z,5.80
2023-05-19T03:58:18.847Z,6.13
2023-05-19T04:00:47.648Z,5.10
2023-05-19T04:03:17.531Z,5.65
2023-05-19T04:05:47.865Z,5.82
2023-05-19T04:08:16.565Z,6.10
2023-05-19T04:10:46.380Z,5.55
2023-05-19T04:13:16.441Z,5.22
2023-05-19T04:15:44.973Z,5.60
2023-05-19T04:18:14.276Z,5.60
2023-05-19T04:20:43.746Z,5.82
2023-05-19T04:23:13.823Z,5.43
2023-05-19T04:25:42.276Z,5.38
2023-05-19T04:28:11.506Z,4.80
2023-05-19T04:30:40.910Z,5.68
2023-05-19T04:33:10.310Z,5.18
2023-05-19T04:35:40.098Z,5.72
2023-05-19T04:38:12.073Z,5.72
2023-05-19T04:40:45.449Z,5.55
2023-05-19T04:43:14.568Z,5.40
2023-05-19T04:45:44.698Z,6.20
2023-05-19T04:48:14.024Z,5.88
2023-05-19T04:50:44.093Z,5.05
2023-05-19T04:53:13.607Z,5.28
2023-05-19T04:55:47.529Z,5.65
2023-05-19T04:58:20.630Z,6.07
2023-05-19T05:00:50.678Z,6.18
2023-05-19T05:03:23.348Z,5.55
2023-05-19T05:05:52.878Z,5.85
2023-05-19T05:08:23.865Z,6.10
2023-05-19T05:10:54.767Z,5.60
2023-05-19T05:13:26.028Z,6.20
2023-05-19T05:15:56.553Z,6.40
2023-05-19T05:18:25.561Z,6.40
2023-05-19T05:20:56.021Z,6.00
2023-05-19T05:23:25.967Z,6.13
2023-05-19T05:25:57.100Z,6.07
2023-05-19T05:28:25.549Z,6.03
2023-05-19T05:30:56.329Z,4.90
2023-05-19T05:33:27.785Z,5.93
2023-05-19T05:35:56.213Z,5.43
2023-05-19T05:38:26.478Z,6.03
2023-05-19T05:40:56.204Z,5.57
2023-05-19T05:43:26.230Z,6.18
2023-05-19T05:46:00.167Z,5.78
2023-05-19T05:48:29.337Z,5.45
2023-05-19T05:51:01.705Z,6.43
2023-05-19T05:53:38.075Z,5.57
2023-05-19T05:56:10.092Z,5.45
2023-05-19T05:58:45.661Z,6.13
2023-05-19T06:01:18.720Z,5.82
2023-05-19T06:03:47.172Z,5.72
2023-05-19T06:06:21.688Z,5.25
2023-05-19T06:08:50.063Z,5.22
2023-05-19T06:11:21.629Z,5.55
2023-05-19T06:13:50.087Z,5.60
2023-05-19T06:16:37.617Z,5.70
2023-05-19T06:19:06.486Z,5.50
2023-05-19T06:21:35.330Z,5.72
2023-05-19T06:24:03.751Z,5.50
2023-05-19T06:26:33.965Z,5.28
2023-05-19T06:29:02.469Z,5.10
2023-05-19T06:31:31.884Z,5.60
2023-05-19T06:34:07.425Z,6.32
2023-05-19T06:36:37.038Z,5.63
2023-05-19T06:39:05.457Z,5.25
2023-05-19T06:41:35.865Z,5.50
2023-05-19T06:44:05.373Z,4.80
2023-05-19T06:46:35.169Z,5.70
2023-05-19T06:49:04.221Z,9.32
2023-05-19T06:51:37.114Z,6.03
2023-05-19T06:54:06.159Z,7.35
2023-05-19T06:56:36.701Z,9.00
2023-05-19T06:59:05.228Z,6.93
2023-05-19T07:01:38.823Z,5.00
2023-05-19T07:04:08.566Z,5.75
2023-05-19T07:06:37.333Z,5.22
2023-05-19T07:09:06.946Z,5.03
2023-05-19T07:11:39.636Z,5.95
2023-05-19T07:14:09.419Z,4.40
2023-05-19T07:16:38.053Z,4.95
2023-05-19T07:19:07.510Z,4.45
2023-05-19T07:21:36.529Z,4.20
2023-05-19T07:24:05.975Z,4.68
2023-05-19T07:26:54.896Z,4.78
2023-05-19T07:29:23.280Z,5.47
2023-05-19T07:31:54.596Z,5.10
2023-05-19T07:34:22.989Z,5.10
2023-05-19T07:36:51.860Z,5.43
2023-05-19T07:39:20.253Z,4.90
2023-05-19T07:41:52.757Z,4.70
2023-05-19T07:44:23.192Z,4.22
2023-05-19T07:46:51.566Z,4.47
2023-05-19T07:49:20.506Z,5.07
2023-05-19T07:51:49.191Z,5.03
2023-05-19T07:54:18.474Z,4.57
2023-05-19T07:56:47.178Z,5.65
2023-05-19T07:59:16.618Z,4.80
2023-05-19T08:01:46.932Z,4.63
2023-05-19T08:04:15.510Z,4.63
2023-05-19T08:06:44.999Z,4.55
2023-05-19T08:09:13.419Z,5.88
2023-05-19T08:11:42.716Z,4.50
2023-05-19T08:14:11.296Z,4.70
2023-05-19T08:16:41.880Z,4.32
2023-05-19T08:19:11.749Z,4.53
2023-05-19T08:21:43.337Z,4.82
2023-05-19T08:24:11.744Z,4.68
2023-05-19T08:26:41.310Z,8.05
2023-05-19T08:29:09.660Z,3.72
2023-05-19T08:31:39.352Z,3.30
2023-05-19T08:34:07.722Z,3.28
2023-05-19T08:36:37.983Z,3.60
2023-05-19T08:39:06.628Z,3.17
2023-05-19T08:41:37.316Z,3.28
2023-05-19T08:44:06.436Z,3.45
2023-05-19T08:46:35.340Z,3.45
2023-05-19T08:49:09.503Z,3.30
2023-05-19T08:51:45.302Z,3.10
2023-05-19T08:54:18.031Z,3.30
2023-05-19T08:56:47.324Z,3.00
2023-05-19T08:59:16.110Z,3.45
2023-05-19T09:01:47.506Z,3.17
2023-05-19T09:04:17.719Z,3.50
2023-05-19T09:06:48.861Z,3.40
2023-05-19T09:09:17.369Z,3.60
2023-05-19T09:11:48.660Z,3.70
2023-05-19T09:14:17.032Z,3.00
2023-05-19T09:16:50.177Z,2.65
2023-05-19T09:19:18.618Z,2.63
2023-05-19T09:22:01.042Z,3.25
2023-05-19T09:24:29.871Z,2.90
2023-05-19T09:27:00.483Z,2.88
2023-05-19T09:29:29.017Z,2.60
2023-05-19T09:32:00.866Z,2.75
2023-05-19T09:34:29.568Z,2.67
2023-05-19T09:37:00.324Z,2.80
2023-05-19T09:39:28.887Z,2.65
2023-05-19T09:41:59.720Z,2.25
2023-05-19T09:44:29.838Z,2.80
2023-05-19T09:47:00.304Z,2.60
2023-05-19T09:49:31.274Z,2.58
2023-05-19T09:52:04.874Z,2.35
2023-05-19T09:54:35.402Z,2.80
2023-05-19T09:57:08.305Z,2.72
2023-05-19T09:59:38.958Z,2.50
2023-05-19T10:02:14.694Z,2.35
2023-05-19T10:04:45.307Z,2.67
2023-05-19T10:07:17.589Z,2.75
2023-05-19T10:09:48.325Z,2.80
2023-05-19T10:12:18.211Z,2.47
2023-05-19T10:14:49.180Z,2.20
2023-05-19T10:17:17.621Z,2.33
2023-05-19T10:19:47.258Z,2.40
2023-05-19T10:22:17.135Z,2.20
2023-05-19T10:24:47.110Z,2.35
2023-05-19T10:27:17.046Z,2.30
2023-05-19T10:29:51.424Z,2.30
2023-05-19T10:32:24.021Z,2.40
2023-05-19T10:35:16.235Z,2.50
2023-05-19T10:37:52.089Z,2.50
2023-05-19T10:40:28.886Z,2.47
2023-05-19T10:43:19.147Z,2.63
2023-05-19T10:45:50.516Z,2.65
2023-05-19T10:48:21.548Z,3.00
2023-05-19T10:50:55.358Z,2.80
2023-05-19T10:53:32.676Z,2.83
2023-05-19T10:56:04.670Z,2.42
2023-05-19T10:58:52.079Z,2.47
2023-05-19T11:01:22.310Z,2.95
2023-05-19T11:03:54.096Z,2.50
2023-05-19T11:06:27.370Z,2.95
2023-05-19T11:09:01.071Z,2.67
2023-05-19T11:11:46.505Z,2.67
2023-05-19T11:14:17.382Z,2.67
2023-05-19T11:16:48.961Z,2.72
2023-05-19T11:19:21.797Z,2.70
2023-05-19T11:21:52.640Z,2.60
2023-05-19T11:24:40.052Z,2.53
2023-05-19T11:27:28.993Z,2.80
2023-05-19T11:29:59.523Z,2.60
2023-05-19T11:32:29.897Z,2.63
2023-05-19T11:34:59.841Z,2.25
2023-05-19T11:37:28.982Z,2.20
2023-05-19T11:40:00.613Z,2.55
2023-05-19T11:42:28.994Z,2.53
2023-05-19T11:44:58.598Z,2.30
2023-05-19T11:47:27.427Z,2.50
2023-05-19T11:49:58.003Z,2.90
2023-05-19T11:52:28.747Z,2.67
2023-05-19T11:54:58.515Z,3.00
2023-05-19T11:57:28.964Z,2.63
2023-05-19T11:59:58.158Z,2.55
2023-05-19T12:02:27.737Z,2.60
2023-05-19T12:04:57.204Z,2.67
2023-05-19T12:07:26.521Z,2.40
2023-05-19T12:09:57.449Z,2.67
2023-05-19T12:12:31.562Z,2.47
2023-05-19T12:15:04.659Z,2.65
2023-05-19T12:17:33.925Z,2.30
2023-05-19T12:20:03.147Z,2.38
2023-05-19T12:22:31.825Z,2.42
2023-05-19T12:25:02.222Z,2.38
2023-05-19T12:27:38.042Z,2.60
2023-05-19T12:30:08.861Z,2.38
2023-05-19T12:32:38.015Z,2.25
2023-05-19T12:35:07.759Z,2.20
2023-05-19T12:37:38.503Z,2.30
2023-05-19T12:40:08.732Z,2.45
2023-05-19T12:42:39.963Z,2.25
2023-05-19T12:45:09.391Z,2.50
2023-05-19T12:47:38.435Z,2.05
2023-05-19T12:50:09.534Z,2.15
2023-05-19T12:52:45.096Z,2.28
2023-05-19T12:55:14.477Z,2.30
2023-05-19T12:57:50.669Z,2.35
2023-05-19T13:00:21.190Z,2.05
2023-05-19T13:02:59.121Z,2.45
2023-05-19T13:05:28.703Z,2.33
2023-05-19T13:07:59.374Z,2.45
2023-05-19T13:10:29.295Z,2.58
2023-05-19T13:13:00.233Z,2.50
2023-05-19T13:15:32.207Z,2.38
2023-05-19T13:18:01.773Z,2.53
2023-05-19T13:20:32.236Z,1.98
2023-05-19T13:23:01.996Z,2.17
2023-05-19T13:25:30.679Z,2.33
2023-05-19T13:28:04.323Z,2.15
2023-05-19T13:30:33.377Z,2.22
2023-05-19T13:33:03.131Z,2.00
2023-05-19T13:35:36.761Z,2.03
2023-05-19T13:38:06.560Z,2.30
2023-05-19T13:40:35.657Z,2.33
2023-05-19T13:43:06.259Z,2.50
2023-05-19T13:45:34.849Z,2.20
2023-05-19T13:48:03.701Z,2.30
2023-05-19T13:50:32.648Z,2.22
2023-05-19T13:53:01.254Z,2.28
2023-05-19T13:55:30.745Z,2.65
2023-05-19T13:58:00.230Z,2.05
2023-05-19T14:00:30.793Z,2.38
2023-05-19T14:03:00.781Z,2.33
2023-05-19T14:05:31.419Z,2.25
2023-05-19T14:08:01.613Z,2.28
2023-05-19T14:10:31.197Z,2.67
2023-05-19T14:15:37.815Z,2.45
2023-05-19T14:18:07.109Z,2.70
2023-05-19T14:20:36.765Z,2.50
2023-05-19T14:23:05.317Z,2.50
2023-05-19T14:25:34.448Z,2.67
2023-05-19T14:28:02.888Z,2.33
2023-05-19T14:30:31.491Z,2.38
2023-05-19T14:33:02.569Z,2.10
2023-05-19T14:35:30.941Z,2.50
2023-05-19T14:38:00.114Z,2.30
2023-05-19T14:40:28.474Z,2.60
2023-05-19T14:42:57.231Z,3.00
2023-05-19T14:45:25.572Z,2.25
2023-05-19T14:47:54.501Z,2.50
2023-05-19T14:50:24.659Z,2.40
2023-05-19T14:52:53.042Z,2.53
2023-05-19T14:55:22.436Z,2.25
2023-05-19T14:57:51.185Z,2.00
2023-05-19T15:00:20.499Z,2.35
2023-05-19T15:02:49.516Z,2.50
2023-05-19T15:05:18.255Z,2.47
2023-05-19T15:07:48.034Z,2.17
2023-05-19T15:10:18.022Z,2.20
2023-05-19T15:12:46.532Z,2.17
2023-05-19T15:15:15.612Z,2.30
2023-05-19T15:17:45.996Z,2.38
2023-05-19T15:20:15.202Z,2.50
2023-05-19T15:22:43.547Z,2.33
2023-05-19T15:25:13.404Z,2.55
2023-05-19T15:27:41.728Z,2.47
2023-05-19T15:30:11.577Z,2.35
2023-05-19T15:32:40.118Z,2.40
2023-05-19T15:35:09.662Z,2.33
2023-05-19T15:37:39.145Z,2.20
2023-05-19T15:40:08.948Z,2.70
2023-05-19T15:42:39.516Z,2.47
2023-05-19T15:45:10.525Z,2.33
2023-05-19T15:47:40.156Z,2.83
2023-05-19T15:50:10.024Z,2.42
2023-05-19T15:52:39.240Z,3.03
2023-05-19T15:55:09.018Z,2.25
2023-05-19T15:57:39.878Z,2.72
2023-05-19T16:00:10.177Z,2.40
2023-05-19T16:02:38.626Z,2.70
2023-05-19T16:05:08.326Z,2.50
2023-05-19T16:07:36.657Z,2.80
2023-05-19T16:10:07.372Z,2.80
2023-05-19T16:12:36.596Z,3.03
2023-05-19T16:15:08.128Z,2.75
2023-05-19T16:17:36.653Z,2.42
2023-05-19T16:20:06.133Z,3.35
2023-05-19T16:22:35.452Z,2.83
2023-05-19T16:25:03.815Z,2.30
2023-05-19T16:27:33.068Z,2.55
2023-05-19T16:30:02.578Z,2.45
2023-05-19T16:32:34.176Z,2.92
2023-05-19T16:35:03.255Z,3.10
2023-05-19T16:37:31.702Z,2.80
2023-05-19T16:40:00.789Z,2.70
2023-05-19T16:42:29.141Z,2.40
2023-05-19T16:44:58.449Z,2.70
2023-05-19T16:47:27.411Z,2.97
2023-05-19T16:49:57.117Z,2.80
2023-05-19T16:52:26.563Z,2.70
2023-05-19T16:54:54.947Z,10.02
2023-05-19T16:57:23.788Z,6.80
2023-05-19T16:59:52.574Z,4.40
2023-05-19T17:02:21.238Z,9.98
2023-05-19T17:04:50.116Z,9.40
2023-05-19T17:07:20.239Z,4.97
2023-05-19T17:09:49.165Z,3.03
2023-05-19T17:12:17.910Z,8.90
2023-05-19T17:14:46.269Z,12.80
2023-05-19T17:17:14.774Z,20.52
2023-05-19T17:19:43.272Z,13.27
2023-05-19T17:22:11.633Z,19.60
2023-05-19T17:24:42.925Z,8.07
2023-05-19T17:27:11.319Z,7.25
2023-05-19T17:29:40.168Z,5.28
2023-05-19T17:32:08.971Z,3.83
2023-05-19T17:34:38.623Z,2.92
2023-05-19T17:37:07.318Z,4.32
2023-05-19T17:39:36.846Z,3.38
2023-05-19T17:42:06.963Z,3.20
2023-05-19T17:44:36.849Z,3.15
2023-05-19T17:47:07.228Z,2.80
2023-05-19T17:49:36.182Z,21.88
2023-05-19T17:52:05.631Z,8.98
2023-05-19T17:54:37.512Z,17.15
2023-05-19T17:57:12.722Z,5.78
2023-05-19T17:59:41.806Z,3.25
2023-05-19T18:02:12.288Z,3.50
2023-05-19T18:04:41.564Z,2.90
2023-05-19T18:07:11.136Z,2.75
2023-05-19T18:09:45.840Z,3.22
2023-05-19T18:12:15.550Z,3.28
2023-05-19T18:14:44.370Z,2.50
2023-05-19T18:17:12.816Z,4.32
2023-05-19T18:19:41.324Z,3.60
2023-05-19T18:22:12.777Z,3.72
2023-05-19T18:24:42.838Z,2.63
2023-05-19T18:27:11.260Z,3.00
2023-05-19T18:29:41.380Z,4.20
2023-05-19T18:32:10.322Z,3.20
2023-05-19T18:34:39.444Z,2.53
2023-05-19T18:37:08.307Z,2.72
2023-05-19T18:39:36.660Z,2.78
2023-05-19T18:42:06.822Z,6.38
2023-05-19T18:44:35.312Z,3.75
2023-05-19T18:47:05.838Z,3.60
2023-05-19T18:49:34.281Z,2.95
2023-05-19T18:52:03.137Z,3.10
2023-05-19T18:54:32.532Z,2.58
2023-05-19T18:57:03.795Z,2.70
2023-05-19T18:59:32.201Z,2.72
2023-05-19T19:02:01.670Z,2.50
2023-05-19T19:04:31.439Z,2.45
2023-05-19T19:06:59.868Z,2.80
2023-05-19T19:09:28.197Z,2.60
2023-05-19T19:11:57.033Z,2.35
2023-05-19T19:14:25.606Z,2.22
2023-05-19T19:16:54.174Z,2.30
2023-05-19T19:19:23.850Z,2.55
2023-05-19T19:21:54.615Z,2.17
2023-05-19T19:24:23.501Z,2.65
2023-05-19T19:26:51.893Z,2.83
2023-05-19T19:29:21.896Z,2.22
2023-05-19T19:31:50.917Z,1.75
2023-05-19T19:34:20.890Z,2.20
2023-05-19T19:36:50.184Z,1.80
2023-05-19T19:39:21.462Z,2.20
2023-05-19T19:41:51.477Z,2.00
2023-05-19T19:44:21.509Z,2.33
2023-05-19T19:46:50.791Z,2.20
2023-05-19T19:49:19.736Z,1.80
2023-05-19T19:51:48.048Z,1.77
2023-05-19T19:54:16.746Z,2.10
2023-05-19T19:56:47.389Z,1.83
2023-05-19T19:59:16.006Z,2.22
2023-05-19T20:01:45.332Z,1.85
2023-05-19T20:04:13.875Z,2.00
2023-05-19T20:06:42.854Z,2.38
2023-05-19T20:09:11.217Z,1.90
2023-05-19T20:11:40.722Z,2.15
2023-05-19T20:14:11.159Z,1.90
2023-05-19T20:16:40.393Z,2.25
2023-05-19T20:19:09.572Z,2.05
2023-05-19T20:21:37.937Z,2.10
2023-05-19T20:24:07.136Z,1.90
2023-05-19T20:26:35.499Z,1.88
2023-05-19T20:29:04.894Z,1.80
2023-05-19T20:31:35.051Z,2.47
2023-05-19T20:34:03.465Z,2.20
2023-05-19T20:36:32.769Z,1.83
2023-05-19T20:39:01.763Z,1.90
2023-05-19T20:41:30.102Z,2.20
2023-05-19T20:43:58.951Z,1.83
2023-05-19T20:46:27.432Z,2.10
2023-05-19T20:48:58.098Z,2.20
2023-05-19T20:51:27.289Z,2.28
2023-05-19T20:53:56.517Z,1.98
2023-05-19T20:56:25.053Z,2.13
2023-05-19T20:58:53.836Z,2.47
2023-05-19T21:01:22.282Z,2.17
2023-05-19T21:03:51.092Z,2.25
2023-05-19T21:06:21.038Z,1.85
2023-05-19T21:08:49.426Z,1.92
2023-05-19T21:11:17.793Z,2.15
2023-05-19T21:13:47.137Z,2.50
2023-05-19T21:16:15.536Z,2.38
2023-05-19T21:18:43.951Z,2.20
2023-05-19T21:21:13.230Z,2.20
2023-05-19T21:23:43.288Z,2.15
2023-05-19T21:26:11.668Z,2.58
2023-05-19T21:28:40.460Z,2.08
2023-05-19T21:31:08.846Z,2.40
2023-05-19T21:33:37.608Z,2.85
2023-05-19T21:36:06.501Z,2.45
2023-05-19T21:38:35.392Z,2.42
2023-05-19T21:41:05.480Z,2.38
2023-05-19T21:43:34.254Z,2.33
2023-05-19T21:46:02.720Z,2.58
2023-05-19T21:48:32.108Z,2.45
2023-05-19T21:51:00.485Z,2.30
2023-05-19T21:53:30.152Z,3.00
2023-05-19T21:55:58.542Z,2.55
2023-05-19T21:58:30.181Z,2.70
2023-05-19T22:00:59.414Z,2.28
2023-05-19T22:03:29.502Z,2.60
2023-05-19T22:05:58.557Z,2.80
2023-05-19T22:08:27.056Z,2.90
2023-05-19T22:10:56.745Z,2.60
2023-05-19T22:13:25.139Z,2.60
2023-05-19T22:15:56.347Z,2.83
2023-05-19T22:18:24.730Z,2.60
2023-05-19T22:20:54.020Z,2.90
2023-05-19T22:23:22.384Z,2.92
2023-05-19T22:25:51.783Z,3.08
2023-05-19T22:28:20.186Z,2.92
2023-05-19T22:30:49.093Z,3.10
2023-05-19T22:33:18.781Z,3.20
2023-05-19T22:35:48.087Z,3.20
2023-05-19T22:38:16.447Z,3.55
2023-05-19T22:40:45.741Z,2.95
2023-05-19T22:43:14.047Z,3.53
2023-05-19T22:45:43.324Z,3.17
2023-05-19T22:48:11.885Z,3.13
2023-05-19T22:50:41.642Z,3.58
2023-05-19T22:53:11.110Z,3.60
2023-05-19T22:55:39.553Z,3.40
2023-05-19T22:58:09.475Z,3.20
2023-05-19T23:00:37.872Z,3.35
2023-05-19T23:03:07.031Z,3.30
2023-05-19T23:05:36.673Z,3.45
2023-05-19T23:08:07.362Z,3.65
2023-05-19T23:10:36.239Z,3.35
2023-05-19T23:13:04.813Z,4.43
2023-05-19T23:15:34.978Z,3.50
2023-05-19T23:18:07.230Z,3.50
2023-05-19T23:20:36.826Z,3.70
2023-05-19T23:23:06.573Z,4.03
2023-05-19T23:25:36.539Z,3.65
2023-05-19T23:28:05.390Z,3.72
2023-05-19T23:30:37.796Z,4.30
2023-05-19T23:33:06.355Z,3.60
2023-05-19T23:35:35.013Z,4.07
2023-05-19T23:38:04.485Z,3.80
2023-05-19T23:40:34.284Z,3.88
2023-05-19T23:43:03.759Z,4.30
2023-05-19T23:45:32.274Z,3.60
2023-05-19T23:48:01.643Z,3.97
2023-05-19T23:50:29.957Z,3.92
2023-05-19T23:52:59.066Z,3.90
2023-05-19T23:55:28.484Z,4.38
2023-05-19T23:57:58.194Z,4.10
